Terminal Aerodrome Forecast
Issued by NWS

Current Version | Previous Version | Text Only | Print | Product List | Glossary On
Versions: 1 2 3 4 5 6 7 8 9 10 11 12 13 14 15 16
000
FTUS41 KLWX 211700 RRA
TAFMTN
TAF
KMTN 211746Z 2118/2218 VRB03KT P6SM SCT040
     FM212100 20005KT 6SM -SHRA BKN050
     FM220200 33004KT 6SM -SHRA OVC025
     FM220900 35008KT 5SM -SHRA OVC008
     FM221200 36010G18KT 3SM -SHRA OVC008
     FM221600 01014G21KT 5SM -SHRA OVC015=

USA.gov is the U.S. government's official web portal to all federal, state and local government web resources and services.